Terminal Aerodrome Forecast
Issued by NWS

Home | Current Version | Previous Version | Graphics & Text | Print | Product List | Glossary On
Versions: 1 2 3 4 5 6 7 8 9 10 11 12 13 14 15 16 17 18 19 20 21 22 23 24
000
FTUS43 KGRB 011500 AAB
TAFMTW
TAF AMD
KMTW 011543Z 0116/0212 19007KT 6SM -RA SCT010 OVC060 WS012/20035KT
      TEMPO 0116/0117 3SM RA BR BKN007
     FM011700 20010G16KT 3SM SHRA VCTS BKN020CB OVC040
     FM012000 24015G22KT P6SM VCSH BKN025 BKN090
     FM020100 27010KT P6SM SCT035 BKN200
     FM020600 27003KT P6SM SCT200=

USA.gov is the U.S. government's official web portal to all federal, state and local government web resources and services.